Virginia Beach, VA (23465)

7:36 AM EST on December 05, 2016 (GMT -0500)
Shadowlawn | | Change Station

Elev 23 ft 36.83 °N, 75.98 °W | Updated 11 seconds ago

Light Rain
Light Rain Mist
47.3 °F
Feels Like 47 °F
N
2.1
Wind Variable Wind from NNE
Gusts 5.0 mph

Today
High -- | Low -- °F
--% Chance of Precip.
Yesterday
High -- | Low -- °F
Precip. -- in
Pressure 29.97 in
Visibility 1.5 miles
Clouds Mostly Cloudy 400 ft
Overcast 1800 ft
Windchill 47 °F
Dew Point 46 °F
Humidity 97%
Rainfall 0.41 in
Snow Depth Not available.
7:02 AM 4:47 PM
Waxing Crescent, 31% visible
SPECI KNTU 051216Z 34007KT 1 1/2SM -RA BR BKN004 OVC018 08/08 A2997 RMK AO2 P0000 T00830078
Pressure 29.97 in
Visibility 1.5 miles
Clouds Mostly Cloudy 400 ft
Overcast 1800 ft
Windchill 47 °F
Dew Point 46 °F
Humidity 97%
Rainfall 0.41 in
Snow Depth Not available.
7:02 AM 4:47 PM
Waxing Crescent, 31% visible
SPECI KNTU 051216Z 34007KT 1 1/2SM -RA BR BKN004 OVC018 08/08 A2997 RMK AO2 P0000 T00830078

10-Day Weather Forecast

Almanac

Astronomy

Dec. 05, 2016 Rise Set
Actual Time
Civil Twilight
Nautical Twilight
Astronomical Twilight
Moon
Length of Visible Light
Length of Day
Tomorrow will be .
, % of the Moon is Illuminated

Today's Extremes

State Highs State Lows

Community

WunderPhotos

Upload Photos

1,955,777 photos uploaded!

WunderBlog® & News

Nearby

Air Quality

  Air Quality AQ Index Pollutant
Not available.

Snow Depth

Station Depth Elevation

Earthquake Activity

City Distance Mag. Time & Date
Minimum magnitude displayed is 2.5.

Coastal Water Temperatures

Place Temperature

Stations

Nearby Weather Stations

Station Location Temp. Windchill Dew Point Humidity Wind Precip. Elev Updated Type
                   

Watches & Warnings

There are currently no watches in effect.